Time;durP1;ratioP1;P1;durP2;ratioP2;P2;SDS_P1;SDS_P2;PMS_P1;PMS_P2;Temp;Humidity;BMP_temperature;BMP_pressure;BME280_temperature;BME280_humidity;BME280_pressure;Samples;Min_cycle;Max_cycle;Signal;HPM_P1;HPM_P2
2022/03/11 00:00:38;;;;;;;1.10;1.10;;;;;;;-11.02;55.60;100983.19;4957958;29;20059;-86
2022/03/11 00:03:07;;;;;;;1.40;1.30;;;;;;;-11.00;55.75;100981.38;4939922;29;20114;-86
2022/03/11 00:05:34;;;;;;;1.10;1.10;;;;;;;-10.97;55.90;100980.41;4957896;29;20195;-85
2022/03/11 00:08:01;;;;;;;1.13;1.13;;;;;;;-10.90;56.17;100976.66;4958141;28;20048;-87
2022/03/11 00:10:29;;;;;;;1.38;1.27;;;;;;;-10.96;56.21;100976.88;4940572;29;20051;-86
2022/03/11 00:12:56;;;;;;;1.30;1.20;;;;;;;-10.86;56.41;100974.75;4956916;29;20055;-86
2022/03/11 00:15:24;;;;;;;1.15;1.15;;;;;;;-10.88;56.45;100976.59;4939720;29;20213;-87
2022/03/11 00:17:52;;;;;;;1.17;1.15;;;;;;;-10.83;56.78;100974.66;4940006;29;20099;-86
2022/03/11 00:20:20;;;;;;;1.38;1.27;;;;;;;-10.86;56.68;100977.38;4956865;29;20144;-86
2022/03/11 00:22:50;;;;;;;1.10;1.10;;;;;;;-10.88;56.69;100972.22;4956441;29;20505;-85
2022/03/11 00:25:18;;;;;;;1.40;1.30;;;;;;;-10.92;56.84;100974.09;4956574;29;20054;-84
2022/03/11 00:27:46;;;;;;;1.40;1.30;;;;;;;-11.11;56.93;100970.50;4956935;29;20070;-86
2022/03/11 00:30:13;;;;;;;1.38;1.27;;;;;;;-11.28;57.35;100968.53;4939190;29;20135;-87
2022/03/11 00:32:41;;;;;;;1.10;1.10;;;;;;;-11.39;57.40;100976.75;4939680;29;20055;-86
2022/03/11 00:35:09;;;;;;;1.35;1.25;;;;;;;-11.39;57.36;100975.91;4956032;29;20102;-86
2022/03/11 00:37:38;;;;;;;1.38;1.27;;;;;;;-11.41;57.35;100973.34;4956313;28;20067;-87
2022/03/11 00:40:07;;;;;;;1.35;1.25;;;;;;;-11.42;57.58;100974.28;4995125;28;20145;-85
2022/03/11 00:42:34;;;;;;;1.30;1.20;;;;;;;-11.35;57.59;100973.13;4995689;28;20121;-86
2022/03/11 00:45:01;;;;;;;1.30;1.20;;;;;;;-11.39;57.19;100979.38;4995548;28;20050;-86
2022/03/11 00:47:29;;;;;;;1.38;1.27;;;;;;;-11.44;57.47;100972.59;4994523;28;20058;-86
2022/03/11 00:49:56;;;;;;;1.10;1.10;;;;;;;-11.47;57.39;100975.31;4961824;28;20054;-85
2022/03/11 00:52:23;;;;;;;1.30;1.20;;;;;;;-11.51;57.46;100973.75;4994847;28;20046;-85
2022/03/11 00:54:50;;;;;;;1.05;1.05;;;;;;;-11.56;57.69;100971.31;4978507;28;20051;-87
2022/03/11 00:57:18;;;;;;;1.15;1.15;;;;;;;-11.60;57.85;100969.72;4995293;28;20043;-85
2022/03/11 00:59:45;;;;;;;1.27;1.20;;;;;;;-11.57;58.16;100970.47;4995472;28;20055;-85
2022/03/11 01:02:12;;;;;;;1.40;1.30;;;;;;;-11.58;58.27;100962.69;4995723;28;20050;-87
2022/03/11 01:04:39;;;;;;;1.23;1.17;;;;;;;-11.54;58.17;100960.81;4994907;28;20050;-87
2022/03/11 01:07:06;;;;;;;1.08;1.08;;;;;;;-11.62;58.27;100961.09;4977259;28;20112;-86
2022/03/11 01:09:33;;;;;;;1.20;1.17;;;;;;;-11.57;58.24;100962.66;4995542;28;20145;-87
2022/03/11 01:12:00;;;;;;;1.02;1.02;;;;;;;-11.62;58.16;100959.38;4994925;28;20055;-86
2022/03/11 01:14:28;;;;;;;1.10;1.10;;;;;;;-11.62;58.17;100963.69;4994423;28;20137;-86
2022/03/11 01:16:55;;;;;;;1.30;1.20;;;;;;;-11.63;58.20;100956.81;4977275;28;20056;-88
2022/03/11 01:19:23;;;;;;;1.23;1.20;;;;;;;-11.67;58.12;100953.47;4994255;28;20054;-87
2022/03/11 01:21:50;;;;;;;1.20;1.10;;;;;;;-11.74;58.17;100952.00;4962341;28;20042;-85
2022/03/11 01:24:17;;;;;;;1.08;1.08;;;;;;;-11.81;58.36;100959.16;4995263;28;20054;-86
2022/03/11 01:26:44;;;;;;;1.50;1.40;;;;;;;-11.86;58.67;100944.63;4994789;28;20061;-86
2022/03/11 01:29:14;;;;;;;1.40;1.30;;;;;;;-11.88;58.87;100949.88;4994800;28;20050;-85
2022/03/11 01:31:41;;;;;;;1.05;1.05;;;;;;;-11.89;59.12;100950.81;5013405;28;20049;-86
2022/03/11 01:34:14;;;;;;;1.50;1.40;;;;;;;-11.94;59.25;100944.06;5013136;28;20544;-86
2022/03/11 01:36:41;;;;;;;1.20;1.20;;;;;;;-11.88;59.29;100956.84;5013613;28;20136;-86
2022/03/11 01:39:08;;;;;;;1.40;1.30;;;;;;;-11.87;59.30;100959.41;5013286;28;20508;-86
2022/03/11 01:41:36;;;;;;;1.10;1.10;;;;;;;-11.88;58.80;100952.50;5013873;28;20058;-85
2022/03/11 01:44:06;;;;;;;1.27;1.20;;;;;;;-11.88;58.87;100949.88;5013619;28;20057;-87
2022/03/11 01:46:34;;;;;;;1.40;1.30;;;;;;;-11.98;59.04;100945.06;5013725;28;20057;-86
2022/03/11 01:49:03;;;;;;;1.13;1.13;;;;;;;-12.03;59.21;100945.22;5013168;28;20046;-85
2022/03/11 01:51:33;;;;;;;1.45;1.35;;;;;;;-12.12;59.32;100950.75;5013761;28;20112;-87
2022/03/11 01:54:00;;;;;;;1.40;1.30;;;;;;;-12.12;59.56;100945.56;5013475;28;20064;-86
2022/03/11 01:56:27;;;;;;;1.30;1.20;;;;;;;-12.16;59.76;100942.19;5013904;28;20085;-85
2022/03/11 01:58:56;;;;;;;1.50;1.40;;;;;;;-12.17;59.90;100934.47;5014078;28;20046;-86
2022/03/11 02:01:24;;;;;;;1.13;1.13;;;;;;;-12.14;60.19;100939.56;5014124;28;20111;-85
2022/03/11 02:03:51;;;;;;;1.40;1.30;;;;;;;-12.15;60.11;100937.84;5013227;28;20054;-85
2022/03/11 02:06:20;;;;;;;1.38;1.27;;;;;;;-12.20;60.33;100935.41;5012914;28;20132;-85
2022/03/11 02:08:47;;;;;;;1.40;1.30;;;;;;;-12.29;60.59;100935.72;5013725;28;20046;-85
2022/03/11 02:11:14;;;;;;;1.00;1.00;;;;;;;-12.31;60.63;100945.31;5012871;28;20046;-86
2022/03/11 02:13:43;;;;;;;1.40;1.30;;;;;;;-12.37;60.75;100942.94;5013287;28;20057;-87
2022/03/11 02:16:15;;;;;;;1.30;1.20;;;;;;;-12.34;61.21;100938.47;4995958;28;20050;-86
2022/03/11 02:18:42;;;;;;;1.40;1.30;;;;;;;-12.38;61.08;100936.88;4995594;28;20504;-87
2022/03/11 02:21:10;;;;;;;1.42;1.33;;;;;;;-12.37;61.10;100935.97;5012261;28;20049;-85
2022/03/11 02:23:44;;;;;;;1.33;1.23;;;;;;;-12.31;61.02;100934.91;5013150;28;20493;-84
2022/03/11 02:26:14;;;;;;;1.38;1.27;;;;;;;-12.38;60.84;100936.00;5012869;28;20116;-86
2022/03/11 02:28:42;;;;;;;1.50;1.40;;;;;;;-12.36;61.02;100942.88;4995679;28;20100;-85
2022/03/11 02:31:09;;;;;;;1.40;1.30;;;;;;;-12.47;61.18;100938.03;5012792;28;20100;-85
2022/03/11 02:33:37;;;;;;;1.35;1.25;;;;;;;-12.54;61.32;100935.69;4995444;28;20127;-85
2022/03/11 02:36:05;;;;;;;1.45;1.35;;;;;;;-12.54;61.65;100933.09;5014182;28;20049;-90
2022/03/11 02:38:35;;;;;;;1.30;1.20;;;;;;;-12.53;61.70;100937.38;5010434;28;20050;-93
2022/03/11 02:41:21;;;;;;;1.33;1.23;;;;;;;-12.44;61.87;100937.06;4994779;28;20050;-85
2022/03/11 02:44:03;;;;;;;1.48;1.38;;;;;;;-12.38;61.61;100926.47;4977188;28;20026;-90
2022/03/11 02:46:44;;;;;;;1.40;1.30;;;;;;;-12.16;61.41;100934.38;5023263;28;20026;-90
2022/03/11 02:49:11;;;;;;;1.30;1.20;;;;;;;-12.04;61.08;100940.94;5021460;28;20026;-94
2022/03/11 02:51:38;;;;;;;1.25;1.20;;;;;;;-11.94;60.64;100936.25;4999988;28;20060;-88
2022/03/11 02:54:06;;;;;;;1.42;1.33;;;;;;;-11.88;60.29;100928.22;5031399;28;20095;-90
2022/03/11 02:56:33;;;;;;;1.25;1.20;;;;;;;-11.83;60.02;100926.25;5012676;28;20060;-87
2022/03/11 02:59:00;;;;;;;1.15;1.15;;;;;;;-11.87;60.03;100928.16;5025798;28;20050;-83
2022/03/11 03:01:27;;;;;;;1.50;1.40;;;;;;;-11.91;60.10;100925.72;5023965;28;20041;-92
2022/03/11 03:03:54;;;;;;;1.10;1.10;;;;;;;-11.92;60.23;100913.59;5002214;28;20077;-83
2022/03/11 03:06:23;;;;;;;1.23;1.17;;;;;;;-11.86;60.15;100919.41;4995086;28;20138;-84
2022/03/11 03:08:50;;;;;;;1.25;1.20;;;;;;;-11.80;60.04;100919.19;4995082;28;20050;-85
2022/03/11 03:11:17;;;;;;;1.10;1.10;;;;;;;-11.86;60.33;100919.41;4995133;28;20512;-86
2022/03/11 03:13:44;;;;;;;1.13;1.10;;;;;;;-11.95;60.45;100908.50;5012953;28;20121;-86
2022/03/11 03:16:12;;;;;;;1.10;1.10;;;;;;;-11.90;60.76;100902.25;4998190;28;20049;-90
2022/03/11 03:18:39;;;;;;;1.30;1.20;;;;;;;-11.95;60.85;100913.69;5018561;28;20057;-86
2022/03/11 03:21:07;;;;;;;1.30;1.20;;;;;;;-11.97;60.94;100908.56;4994865;28;20495;-82
2022/03/11 03:23:34;;;;;;;1.40;1.30;;;;;;;-11.96;60.88;100901.59;5013121;28;20123;-86
2022/03/11 03:26:01;;;;;;;1.40;1.30;;;;;;;-12.05;60.74;100905.38;5013056;28;20081;-83
2022/03/11 03:28:30;;;;;;;1.30;1.20;;;;;;;-12.12;61.16;100906.50;5011870;28;20664;-83
2022/03/11 03:30:57;;;;;;;1.40;1.30;;;;;;;-12.17;61.20;100903.22;4994314;28;20041;-83
2022/03/11 03:33:24;;;;;;;1.25;1.20;;;;;;;-12.18;61.33;100904.09;4994866;28;20065;-83
2022/03/11 03:35:52;;;;;;;1.00;1.00;;;;;;;-12.24;61.43;100902.56;5016570;28;20041;-82
2022/03/11 03:38:19;;;;;;;1.35;1.25;;;;;;;-12.30;61.60;100895.84;5022432;28;20046;-85
2022/03/11 03:40:46;;;;;;;1.30;1.20;;;;;;;-12.30;61.89;100892.38;4995368;28;20133;-83
2022/03/11 03:43:14;;;;;;;1.30;1.20;;;;;;;-12.36;61.80;100889.97;5012748;28;20054;-85
2022/03/11 03:45:41;;;;;;;1.10;1.10;;;;;;;-12.38;61.97;100895.25;5025910;28;20056;-86
2022/03/11 03:48:08;;;;;;;1.38;1.27;;;;;;;-12.32;62.02;100900.25;5017303;28;20137;-90
2022/03/11 03:50:35;;;;;;;1.10;1.10;;;;;;;-12.30;61.65;100893.22;4640715;28;9999736;-85
2022/03/11 03:53:04;;;;;;;1.10;1.10;;;;;;;-12.36;61.80;100892.59;5012280;28;20046;-87
2022/03/11 03:55:31;;;;;;;1.40;1.30;;;;;;;-12.38;61.91;100892.66;4977571;28;20046;-85
2022/03/11 03:57:59;;;;;;;1.25;1.20;;;;;;;-12.40;61.97;100888.38;4994143;28;20467;-88
2022/03/11 04:00:26;;;;;;;1.10;1.10;;;;;;;-12.41;61.94;100884.94;4987454;28;20088;-88
2022/03/11 04:02:54;;;;;;;1.30;1.20;;;;;;;-12.35;61.81;100889.94;5016782;28;20093;-88
2022/03/11 04:05:21;;;;;;;1.40;1.30;;;;;;;-12.45;61.67;100886.81;5020006;28;20050;-91
2022/03/11 04:07:49;;;;;;;1.30;1.20;;;;;;;-12.54;61.78;100881.06;5024342;28;20562;-89
2022/03/11 04:10:18;;;;;;;1.30;1.20;;;;;;;-12.58;61.95;100882.03;5020719;28;20042;-87
2022/03/11 04:12:45;;;;;;;1.40;1.30;;;;;;;-12.55;62.07;100879.38;5000781;28;20104;-87
2022/03/11 04:15:12;;;;;;;1.17;1.17;;;;;;;-12.54;62.07;100874.09;4999384;28;20088;-88
2022/03/11 04:17:39;;;;;;;1.38;1.27;;;;;;;-12.52;62.06;100874.91;5001035;28;20586;-87
2022/03/11 04:20:07;;;;;;;1.40;1.30;;;;;;;-12.51;61.83;100873.13;5016848;28;20046;-85
2022/03/11 04:22:54;;;;;;;1.38;1.27;;;;;;;-12.50;62.15;100870.50;4999104;28;20050;-87
2022/03/11 04:25:21;;;;;;;1.27;1.20;;;;;;;-12.57;62.04;100869.00;5010398;28;20054;-87
2022/03/11 04:27:48;;;;;;;1.10;1.10;;;;;;;-12.63;62.09;100868.34;5016000;28;20050;-85
2022/03/11 04:30:19;;;;;;;1.23;1.17;;;;;;;-12.62;62.17;100864.88;5016730;28;20046;-86
2022/03/11 04:32:48;;;;;;;1.10;1.10;;;;;;;-12.62;61.96;100868.31;5000978;28;20100;-86
2022/03/11 04:35:15;;;;;;;1.40;1.30;;;;;;;-12.62;61.90;100870.91;5016933;28;20077;-86
2022/03/11 04:37:43;;;;;;;1.40;1.30;;;;;;;-12.61;61.88;100871.75;4998381;28;20053;-86
2022/03/11 04:40:10;;;;;;;1.35;1.25;;;;;;;-12.58;61.71;100877.72;5017650;28;20141;-86
2022/03/11 04:42:37;;;;;;;1.33;1.23;;;;;;;-12.51;61.55;100863.56;4999615;28;20059;-86
2022/03/11 04:45:05;;;;;;;1.35;1.25;;;;;;;-12.42;61.33;100870.22;5011384;28;20132;-85
2022/03/11 04:47:32;;;;;;;1.50;1.40;;;;;;;-12.33;61.49;100863.84;5032844;28;20053;-86
2022/03/11 04:50:00;;;;;;;1.10;1.10;;;;;;;-12.23;61.18;100865.22;5031862;28;20080;-85
2022/03/11 04:52:28;;;;;;;1.50;1.40;;;;;;;-12.10;60.92;100858.69;5024529;28;20049;-87
2022/03/11 04:54:55;;;;;;;1.30;1.20;;;;;;;-11.99;60.58;100865.28;5018151;28;20081;-87
2022/03/11 04:57:37;;;;;;;1.40;1.30;;;;;;;-11.94;60.43;100864.19;5026246;28;20049;-86
2022/03/11 05:00:05;;;;;;;1.23;1.17;;;;;;;-11.92;60.33;100866.72;5007604;28;20046;-85
2022/03/11 05:02:35;;;;;;;1.25;1.20;;;;;;;-11.82;60.27;100868.91;4951756;28;20088;-85
2022/03/11 05:05:12;;;;;;;1.30;1.20;;;;;;;-11.75;59.96;100873.88;4928717;29;20153;-87
2022/03/11 05:07:43;;;;;;;1.40;1.30;;;;;;;-11.72;59.92;100861.63;4946981;29;20051;-88
2022/03/11 05:10:17;;;;;;;1.10;1.10;;;;;;;-11.61;59.85;100869.84;4933248;29;20052;-86
2022/03/11 05:12:44;;;;;;;1.10;1.10;;;;;;;-11.48;59.73;100862.41;4945847;29;20051;-86
2022/03/11 05:15:13;;;;;;;1.48;1.38;;;;;;;-11.37;59.38;100860.28;4924696;29;20056;-85
2022/03/11 05:17:40;;;;;;;1.40;1.30;;;;;;;-11.23;59.27;100862.31;4923199;29;20079;-86
2022/03/11 05:20:07;;;;;;;1.30;1.20;;;;;;;-11.12;59.21;100859.28;4933900;29;20553;-86
2022/03/11 05:22:37;;;;;;;1.42;1.33;;;;;;;-10.95;58.65;100853.41;4912444;29;20048;-87
2022/03/11 05:25:04;;;;;;;1.30;1.20;;;;;;;-10.83;58.53;100857.28;4922051;29;20055;-87
2022/03/11 05:27:34;;;;;;;1.33;1.23;;;;;;;-10.69;58.37;100854.91;4937451;29;20056;-83
2022/03/11 05:30:08;;;;;;;1.40;1.30;;;;;;;-10.55;58.03;100849.97;4942092;29;20048;-88
2022/03/11 05:32:46;;;;;;;1.40;1.30;;;;;;;-10.37;57.74;100852.72;4585215;29;10000244;-84
2022/03/11 05:35:15;;;;;;;1.48;1.38;;;;;;;-10.30;57.56;100849.78;4938992;28;20598;-83
2022/03/11 05:37:44;;;;;;;1.40;1.30;;;;;;;-10.14;57.50;100856.91;4957449;28;20085;-86
2022/03/11 05:40:12;;;;;;;1.40;1.30;;;;;;;-9.98;57.24;100854.47;4957051;28;20047;-85
2022/03/11 05:42:44;;;;;;;1.40;1.30;;;;;;;-9.86;56.96;100852.16;4926797;28;20611;-84
2022/03/11 05:45:12;;;;;;;1.30;1.20;;;;;;;-9.72;56.65;100850.66;4983480;28;20145;-86
2022/03/11 05:47:39;;;;;;;1.35;1.25;;;;;;;-9.55;56.40;100852.50;4973124;28;20050;-86
2022/03/11 05:50:07;;;;;;;1.40;1.30;;;;;;;-9.27;56.17;100847.66;4973705;28;20053;-85
2022/03/11 05:52:38;;;;;;;1.50;1.40;;;;;;;-9.01;55.62;100845.59;4984843;28;20109;-84
2022/03/11 05:55:10;;;;;;;1.27;1.17;;;;;;;-8.80;55.08;100834.06;4992634;28;20050;-92
2022/03/11 05:57:38;;;;;;;1.35;1.25;;;;;;;-8.55;54.83;100840.69;4993746;28;20074;-87
2022/03/11 06:00:06;;;;;;;1.40;1.30;;;;;;;-8.37;54.34;100833.63;4985868;28;20043;-88
2022/03/11 06:02:39;;;;;;;;;;;;;;;-8.16;54.00;100832.50;5007074;28;20133;-93
2022/03/11 06:05:09;;;;;;;0.98;0.98;;;;;;;-7.95;52.86;100835.78;5019142;28;19925;-86
2022/03/11 06:07:38;;;;;;;1.02;1.02;;;;;;;-7.75;52.50;100826.00;5013831;28;20042;-88
2022/03/11 06:10:05;;;;;;;1.00;1.00;;;;;;;-7.57;51.98;100824.16;5001284;28;20509;-86
2022/03/11 06:12:33;;;;;;;1.27;1.20;;;;;;;-7.47;50.67;100823.59;4997184;28;20054;-86
2022/03/11 06:15:07;;;;;;;1.27;1.20;;;;;;;-7.32;50.77;100807.91;4978340;28;20105;-85
2022/03/11 06:17:34;;;;;;;1.00;1.00;;;;;;;-7.08;50.28;100819.66;4978500;28;20054;-86
2022/03/11 06:20:01;;;;;;;1.02;1.02;;;;;;;-6.95;49.46;100817.16;4997036;28;20361;-87
2022/03/11 06:22:29;;;;;;;1.05;1.05;;;;;;;-6.75;49.40;100810.75;4981468;28;20057;-87
2022/03/11 06:24:59;;;;;;;1.00;1.00;;;;;;;-6.49;49.03;100809.22;4985270;28;20054;-86
2022/03/11 06:27:26;;;;;;;0.90;0.90;;;;;;;-6.26;48.54;100802.59;4997642;28;20519;-86
2022/03/11 06:29:53;;;;;;;1.00;1.00;;;;;;;-6.03;47.94;100803.81;4983516;28;20093;-87
2022/03/11 06:32:20;;;;;;;1.00;1.00;;;;;;;-5.86;46.77;100794.00;5002020;28;20047;-87
2022/03/11 06:34:48;;;;;;;1.10;1.10;;;;;;;-5.84;45.95;100786.88;4987282;28;20120;-88
2022/03/11 06:37:15;;;;;;;1.00;1.00;;;;;;;-5.88;45.79;100788.84;5004259;28;20050;-86
2022/03/11 06:39:43;;;;;;;1.10;1.10;;;;;;;-5.77;45.73;100796.06;4998708;28;20073;-87
2022/03/11 06:42:13;;;;;;;1.00;1.00;;;;;;;-5.62;45.32;100783.72;4999970;28;20460;-87
2022/03/11 06:44:40;;;;;;;1.00;1.00;;;;;;;-5.59;44.96;100783.56;4978413;28;20456;-87
2022/03/11 06:47:08;;;;;;;0.93;0.93;;;;;;;-5.49;44.82;100782.88;4978317;28;20272;-87
2022/03/11 06:49:40;;;;;;;1.00;1.00;;;;;;;-5.27;44.56;100774.41;4995064;28;20046;-89
2022/03/11 06:52:07;;;;;;;0.73;0.73;;;;;;;-5.11;44.18;100776.91;4978298;28;20062;-87
2022/03/11 06:54:35;;;;;;;1.00;1.00;;;;;;;-4.97;43.43;100775.97;4978055;28;20096;-87
2022/03/11 06:57:02;;;;;;;0.70;0.70;;;;;;;-4.92;42.87;100771.25;4997649;28;20115;-89
2022/03/11 06:59:30;;;;;;;0.90;0.90;;;;;;;-4.85;42.78;100774.34;4994792;28;20153;-88
2022/03/11 07:01:57;;;;;;;0.85;0.85;;;;;;;-4.65;42.45;100778.28;4997364;28;20050;-88
2022/03/11 07:04:32;;;;;;;0.80;0.80;;;;;;;-4.44;42.29;100771.53;4964010;28;20054;-88
2022/03/11 07:07:00;;;;;;;0.70;0.70;;;;;;;-4.28;41.80;100771.34;4979502;28;20120;-88
2022/03/11 07:09:27;;;;;;;0.65;0.65;;;;;;;-4.19;42.26;100767.22;4996229;28;20049;-87
2022/03/11 07:11:57;;;;;;;0.80;0.80;;;;;;;-3.97;41.93;100772.66;4963471;28;20049;-87
2022/03/11 07:14:24;;;;;;;0.90;0.90;;;;;;;-3.76;40.92;100764.19;4980834;28;20394;-87
2022/03/11 07:16:52;;;;;;;0.60;0.60;;;;;;;-3.64;40.50;100757.19;4947531;28;20146;-88
2022/03/11 07:19:20;;;;;;;0.88;0.88;;;;;;;-3.68;39.11;100763.63;4995040;28;20054;-88
2022/03/11 07:21:47;;;;;;;0.88;0.88;;;;;;;-3.70;39.63;100758.47;4977268;28;20058;-87
2022/03/11 07:24:14;;;;;;;0.80;0.80;;;;;;;-3.65;39.32;100761.59;4976707;28;20475;-88
2022/03/11 07:26:41;;;;;;;0.70;0.70;;;;;;;-3.63;39.03;100748.31;4976460;28;20110;-89
2022/03/11 07:29:08;;;;;;;0.90;0.90;;;;;;;-3.49;38.92;100753.44;4980248;28;20063;-89
2022/03/11 07:31:35;;;;;;;0.80;0.80;;;;;;;-3.33;39.03;100755.81;4996392;28;20069;-88
2022/03/11 07:34:03;;;;;;;0.77;0.77;;;;;;;-3.07;38.73;100746.78;4994902;28;20050;-88
2022/03/11 07:36:32;;;;;;;0.80;0.80;;;;;;;-2.86;38.26;100746.13;4978269;28;20046;-90
2022/03/11 07:39:01;;;;;;;1.00;1.00;;;;;;;-2.79;37.84;100747.38;4986480;28;20109;-88
2022/03/11 07:41:29;;;;;;;0.63;0.63;;;;;;;-2.78;37.45;100738.50;5000781;28;20043;-88
2022/03/11 07:43:57;;;;;;;0.80;0.80;;;;;;;-2.59;37.79;100740.56;4982217;28;20149;-89
2022/03/11 07:46:44;;;;;;;0.90;0.90;;;;;;;-2.30;37.24;100738.34;4990535;28;20042;-87
2022/03/11 07:49:27;;;;;;;0.90;0.90;;;;;;;-2.19;36.85;100740.97;4981611;28;20039;-86
2022/03/11 07:51:55;;;;;;;0.68;0.68;;;;;;;-1.96;36.34;100740.97;4998946;28;20058;-89
2022/03/11 07:54:22;;;;;;;0.80;0.80;;;;;;;-1.84;35.57;100736.53;4963230;28;20042;-89
2022/03/11 07:56:50;;;;;;;0.95;0.95;;;;;;;-1.72;35.28;100732.03;4962997;28;20047;-88
2022/03/11 07:59:17;;;;;;;0.90;0.90;;;;;;;-1.56;34.85;100727.19;4964873;28;20042;-89
2022/03/11 08:01:46;;;;;;;1.00;1.00;;;;;;;-1.36;34.11;100737.00;4969400;28;20050;-89
2022/03/11 08:04:13;;;;;;;0.80;0.80;;;;;;;-1.39;33.38;100721.38;4985672;28;20509;-88
2022/03/11 08:06:41;;;;;;;0.90;0.90;;;;;;;-0.90;33.47;100727.91;4999937;28;20409;-88
2022/03/11 08:09:27;;;;;;;0.80;0.80;;;;;;;-0.49;32.17;100720.91;5005106;28;20053;-89
2022/03/11 08:11:54;;;;;;;0.75;0.75;;;;;;;-0.24;31.71;100711.69;4982580;28;20053;-89
2022/03/11 08:14:22;;;;;;;0.85;0.85;;;;;;;0.24;31.41;100707.50;4973339;28;20104;-87
2022/03/11 08:16:50;;;;;;;1.02;1.02;;;;;;;0.68;30.76;100705.34;4996435;28;20651;-85
2022/03/11 08:19:17;;;;;;;1.10;1.10;;;;;;;0.74;29.67;100707.44;4956956;28;20537;-84
2022/03/11 08:21:52;;;;;;;1.00;1.00;;;;;;;0.29;30.36;100701.81;4994385;28;20047;-85
2022/03/11 08:24:19;;;;;;;1.13;1.10;;;;;;;0.43;30.25;100702.25;4980323;28;20051;-85
2022/03/11 08:26:48;;;;;;;0.90;0.90;;;;;;;0.37;29.64;100692.16;4970635;28;20212;-85
2022/03/11 08:29:16;;;;;;;0.80;0.80;;;;;;;-0.01;29.37;100691.09;4960666;28;20053;-84
2022/03/11 08:31:48;;;;;;;0.73;0.73;;;;;;;-0.21;29.91;100692.00;4977396;28;20081;-84
2022/03/11 08:34:17;;;;;;;0.90;0.90;;;;;;;-0.44;30.10;100686.88;4991820;28;20054;-85
2022/03/11 08:36:44;;;;;;;1.00;1.00;;;;;;;-0.41;30.54;100684.94;4994075;28;20117;-85
2022/03/11 08:39:11;;;;;;;1.00;1.00;;;;;;;-0.53;30.41;100682.38;4637104;28;10000351;-83
2022/03/11 08:41:38;;;;;;;0.82;0.82;;;;;;;-0.53;30.00;100678.84;4983752;28;20425;-84
2022/03/11 08:44:08;;;;;;;0.90;0.90;;;;;;;-0.30;29.83;100676.91;4973301;28;20074;-83
2022/03/11 08:46:36;;;;;;;0.80;0.80;;;;;;;-0.24;29.35;100660.44;4973314;28;20054;-85
2022/03/11 08:49:07;;;;;;;1.00;1.00;;;;;;;-0.10;29.38;100669.81;4974008;28;20055;-84
2022/03/11 08:51:35;;;;;;;0.75;0.75;;;;;;;0.21;29.25;100667.97;4966690;28;20050;-85
2022/03/11 08:54:02;;;;;;;0.80;0.80;;;;;;;0.33;29.63;100674.84;4969422;28;20070;-84
2022/03/11 08:56:29;;;;;;;1.10;1.10;;;;;;;0.47;28.89;100662.97;4982893;28;20154;-83
2022/03/11 08:58:58;;;;;;;0.90;0.90;;;;;;;0.17;28.74;100666.53;4967887;28;20857;-83
2022/03/11 09:01:25;;;;;;;1.10;1.10;;;;;;;0.57;28.57;100665.63;4980875;28;20051;-83
2022/03/11 09:03:53;;;;;;;1.40;1.30;;;;;;;1.05;28.05;100649.63;4980640;28;20516;-85
2022/03/11 09:06:20;;;;;;;1.15;1.15;;;;;;;1.80;27.10;100659.47;4984771;28;20061;-87
2022/03/11 09:08:48;;;;;;;1.10;1.10;;;;;;;2.15;26.22;100659.59;4961880;28;20050;-85
2022/03/11 09:11:16;;;;;;;1.10;1.10;;;;;;;2.12;25.57;100653.72;4971227;28;20046;-84
2022/03/11 09:13:49;;;;;;;1.27;1.20;;;;;;;2.28;24.77;100659.22;4976623;28;20052;-84
2022/03/11 09:16:16;;;;;;;1.20;1.20;;;;;;;2.66;24.73;100659.06;4977525;28;20054;-83
2022/03/11 09:18:43;;;;;;;1.10;1.10;;;;;;;2.70;24.18;100668.47;4983073;28;20042;-82
2022/03/11 09:21:12;;;;;;;1.02;1.02;;;;;;;2.11;23.09;100647.56;4992048;28;20138;-83
2022/03/11 09:23:39;;;;;;;1.10;1.10;;;;;;;2.42;23.45;100649.88;4989873;28;20055;-84
2022/03/11 09:26:07;;;;;;;1.40;1.30;;;;;;;2.59;23.29;100650.88;4977339;28;20726;-84
2022/03/11 09:28:34;;;;;;;1.40;1.30;;;;;;;3.09;22.92;100646.75;4978589;28;20047;-83
2022/03/11 09:31:03;;;;;;;1.15;1.13;;;;;;;3.57;22.68;100638.25;5008750;28;20080;-81
2022/03/11 09:33:31;;;;;;;1.20;1.20;;;;;;;3.75;22.33;100631.97;4978649;28;20050;-84
2022/03/11 09:35:58;;;;;;;1.30;1.20;;;;;;;3.72;22.10;100622.44;4961571;28;20141;-84
2022/03/11 09:38:26;;;;;;;1.30;1.20;;;;;;;3.97;21.50;100622.53;4968981;28;20515;-85
2022/03/11 09:40:53;;;;;;;1.30;1.20;;;;;;;4.04;21.97;100624.41;4970495;28;20050;-83
2022/03/11 09:43:21;;;;;;;1.30;1.20;;;;;;;4.06;21.20;100616.22;4967009;28;20046;-87
2022/03/11 09:45:48;;;;;;;1.15;1.15;;;;;;;4.51;20.82;100609.63;4947092;28;21006;-86
2022/03/11 09:48:17;;;;;;;1.40;1.30;;;;;;;4.96;20.14;100605.59;4981235;28;20421;-84
2022/03/11 09:50:44;;;;;;;1.30;1.20;;;;;;;4.76;19.58;100603.28;4987204;28;20050;-85
2022/03/11 09:53:12;;;;;;;1.30;1.20;;;;;;;4.64;18.71;100611.81;4966491;28;20089;-86
2022/03/11 09:55:41;;;;;;;1.40;1.30;;;;;;;4.40;18.34;100593.91;4979514;28;20050;-86
2022/03/11 09:58:09;;;;;;;1.10;1.10;;;;;;;4.57;18.54;100593.75;4996107;28;20058;-87
2022/03/11 10:00:37;;;;;;;1.30;1.20;;;;;;;5.42;18.25;100584.44;4977360;28;20050;-86
2022/03/11 10:03:04;;;;;;;1.30;1.20;;;;;;;5.19;17.98;100582.50;4957478;28;20054;-84
2022/03/11 10:05:52;;;;;;;1.30;1.20;;;;;;;4.92;18.46;100580.19;4977722;28;20523;-84
2022/03/11 10:08:35;;;;;;;1.40;1.30;;;;;;;4.83;19.47;100574.00;4961299;28;20092;-82
2022/03/11 10:11:20;;;;;;;1.30;1.20;;;;;;;4.96;19.44;100581.50;4955793;28;20070;-85
2022/03/11 10:13:55;;;;;;;1.40;1.30;;;;;;;5.21;19.32;100572.44;4974473;28;20133;-86
2022/03/11 10:16:27;;;;;;;1.30;1.20;;;;;;;5.88;19.10;100576.53;4968911;28;20058;-86
2022/03/11 10:19:08;;;;;;;1.30;1.20;;;;;;;6.15;19.08;100563.66;4967596;28;20079;-86
2022/03/11 10:21:36;;;;;;;1.30;1.20;;;;;;;6.02;19.20;100562.41;4992682;28;20085;-86
2022/03/11 10:24:06;;;;;;;1.30;1.20;;;;;;;6.27;18.89;100563.09;4983151;28;20635;-86
2022/03/11 10:26:39;;;;;;;1.10;1.10;;;;;;;6.35;18.70;100558.69;4970792;28;20054;-86
2022/03/11 10:29:23;;;;;;;1.10;1.10;;;;;;;6.35;18.80;100554.16;4984159;28;20053;-87
2022/03/11 10:31:53;;;;;;;1.20;1.20;;;;;;;6.57;18.51;100540.91;4957184;28;20101;-87
2022/03/11 10:34:30;;;;;;;1.20;1.20;;;;;;;6.64;18.45;100539.19;4990006;28;20154;-87
2022/03/11 10:37:04;;;;;;;1.10;1.10;;;;;;;6.45;18.50;100538.63;4975788;28;20275;-87
2022/03/11 10:39:38;;;;;;;1.20;1.20;;;;;;;6.98;18.66;100527.09;4979788;28;20074;-87
2022/03/11 10:42:19;;;;;;;1.20;1.20;;;;;;;6.98;18.02;100532.47;4985694;28;20101;-83
2022/03/11 10:45:10;;;;;;;1.30;1.20;;;;;;;7.16;17.82;100530.25;4998302;28;20060;-87
2022/03/11 10:47:40;;;;;;;1.20;1.20;;;;;;;7.58;17.63;100518.00;4984002;28;20054;-85
2022/03/11 10:50:15;;;;;;;1.20;1.20;;;;;;;7.85;17.60;100513.78;4991555;28;20076;-85
2022/03/11 10:52:44;;;;;;;1.23;1.20;;;;;;;8.40;17.31;100516.81;4994601;28;20046;-86
2022/03/11 10:55:22;;;;;;;1.20;1.20;;;;;;;8.95;17.43;100508.97;4994520;28;20109;-86
2022/03/11 10:57:58;;;;;;;1.15;1.15;;;;;;;9.15;17.78;100514.50;4974326;28;20051;-86
2022/03/11 11:00:30;;;;;;;1.10;1.10;;;;;;;8.39;17.77;100499.00;4974354;28;20051;-85
2022/03/11 11:03:03;;;;;;;1.10;1.10;;;;;;;7.91;18.03;100501.44;4976182;28;20047;-85
2022/03/11 11:05:31;;;;;;;1.10;1.10;;;;;;;8.72;17.82;100495.78;4973201;28;20050;-87
2022/03/11 11:08:00;;;;;;;1.10;1.10;;;;;;;8.46;17.13;100486.47;4955863;28;20047;-86
2022/03/11 11:10:30;;;;;;;1.10;1.10;;;;;;;8.33;17.42;100484.47;4983954;28;20042;-86
2022/03/11 11:12:57;;;;;;;1.10;1.10;;;;;;;8.42;17.77;100477.13;4992657;28;20050;-87
2022/03/11 11:15:24;;;;;;;1.10;1.10;;;;;;;8.65;16.64;100485.78;4989342;28;20129;-84
2022/03/11 11:17:53;;;;;;;1.10;1.10;;;;;;;8.03;17.12;100475.72;4990222;28;20096;-84
2022/03/11 11:21:01;;;;;;;1.10;1.10;;;;;;;8.56;17.05;100476.19;4999219;28;20073;-84
2022/03/11 11:23:28;;;;;;;1.00;1.00;;;;;;;8.81;16.65;100470.34;4918367;29;20525;-86
2022/03/11 11:25:56;;;;;;;1.10;1.10;;;;;;;9.81;16.78;100463.56;4933822;29;20473;-86
2022/03/11 11:28:28;;;;;;;1.10;1.10;;;;;;;9.30;16.18;100459.44;4929351;29;20526;-85
2022/03/11 11:30:56;;;;;;;1.10;1.10;;;;;;;9.42;16.80;100446.25;4925662;29;20059;-87
2022/03/11 11:33:24;;;;;;;1.10;1.10;;;;;;;9.62;16.47;100445.44;4912327;29;20059;-86